Time;durP1;ratioP1;P1;durP2;ratioP2;P2;SDS_P1;SDS_P2;PMS_P1;PMS_P2;Temp;Humidity;BMP_temperature;BMP_pressure;BME280_temperature;BME280_humidity;BME280_pressure;Samples;Min_cycle;Max_cycle;Signal;HPM_P1;HPM_P2
2021/01/19 00:00:58;;;;;;;53.97;21.67;;;;;;;-15.39;74.12;93153.69;1746173;81;21180;-75
2021/01/19 00:03:26;;;;;;;55.57;20.83;;;;;;;-15.37;74.35;93155.03;1751896;81;21188;-75
2021/01/19 00:05:54;;;;;;;52.43;20.73;;;;;;;-15.32;74.31;93149.87;1786090;79;21199;-77
2021/01/19 00:08:24;;;;;;;56.90;18.33;;;;;;;-15.27;74.37;93148.62;1747988;81;21790;-77
2021/01/19 00:10:52;;;;;;;66.70;24.53;;;;;;;-15.18;74.59;93151.61;1792920;80;21021;-76
2021/01/19 00:13:22;;;;;;;97.53;34.47;;;;;;;-15.00;74.49;93158.34;1706049;81;21611;-76
2021/01/19 00:15:50;;;;;;;71.00;27.80;;;;;;;-14.97;73.58;93158.64;1772371;80;21451;-75
2021/01/19 00:18:18;;;;;;;70.77;27.57;;;;;;;-15.01;73.05;93160.66;1723488;82;21208;-75
2021/01/19 00:20:46;;;;;;;82.23;34.77;;;;;;;-15.06;72.97;93161.39;1698147;81;21642;-74
2021/01/19 00:23:13;;;;;;;71.87;27.67;;;;;;;-15.11;72.69;93160.05;1684477;84;21192;-74
2021/01/19 00:25:43;;;;;;;80.07;32.13;;;;;;;-15.16;73.01;93153.96;1652122;86;21754;-75
2021/01/19 00:28:10;;;;;;;86.00;32.07;;;;;;;-15.17;72.97;93160.22;1693808;83;21208;-76
2021/01/19 00:30:43;;;;;;;89.50;32.23;;;;;;;-15.21;72.87;93159.91;1753858;80;21175;-76
2021/01/19 00:33:11;;;;;;;98.07;35.80;;;;;;;-15.16;72.89;93166.48;1753793;81;21749;-75
2021/01/19 00:35:41;;;;;;;70.67;26.43;;;;;;;-15.16;72.75;93167.00;1778560;80;21762;-75
2021/01/19 00:38:09;;;;;;;50.77;19.60;;;;;;;-15.19;72.86;93169.08;1721231;83;21230;-75
2021/01/19 00:40:37;;;;;;;67.97;24.90;;;;;;;-15.22;73.29;93165.65;1777911;80;21224;-76
2021/01/19 00:43:04;;;;;;;86.23;34.60;;;;;;;-15.21;73.41;93164.61;1787453;80;21159;-76
2021/01/19 00:45:31;;;;;;;99.83;34.87;;;;;;;-15.15;73.29;93175.91;1783249;80;21369;-75
2021/01/19 00:47:59;;;;;;;89.53;30.53;;;;;;;-15.15;72.93;93169.39;1750881;81;21140;-74
2021/01/19 00:50:26;;;;;;;71.10;28.57;;;;;;;-15.17;72.82;93172.74;1788119;79;21183;-75
2021/01/19 00:52:56;;;;;;;49.80;17.80;;;;;;;-15.20;72.80;93168.78;1721769;83;21630;-76
2021/01/19 00:55:25;;;;;;;50.20;20.47;;;;;;;-15.29;73.24;93165.56;1827083;77;21119;-75
2021/01/19 00:57:56;;;;;;;44.57;19.10;;;;;;;-15.36;73.84;93161.04;1793871;78;21093;-76
2021/01/19 01:00:29;;;;;;;69.40;25.13;;;;;;;-15.36;73.59;93154.00;1773533;78;21184;-76
2021/01/19 01:03:04;;;;;;;94.45;34.25;;;;;;;-15.34;73.84;93157.16;1731450;82;21334;-76
2021/01/19 01:05:34;;;;;;;76.73;28.03;;;;;;;-15.35;72.72;93158.17;1724697;82;21649;-75
2021/01/19 01:08:02;;;;;;;74.00;28.20;;;;;;;-15.47;71.82;93152.30;1774937;80;21190;-76
2021/01/19 01:10:30;;;;;;;96.77;33.50;;;;;;;-15.62;72.67;93147.67;1776818;80;21311;-75
2021/01/19 01:12:57;;;;;;;71.17;25.53;;;;;;;-15.65;73.00;93143.48;1736737;80;21266;-75
2021/01/19 01:15:36;;;;;;;67.93;28.37;;;;;;;-15.60;73.24;93148.23;1743033;80;21210;-75
2021/01/19 01:18:06;;;;;;;101.23;36.13;;;;;;;-15.57;72.61;93150.33;1783467;80;21164;-74
2021/01/19 01:20:34;;;;;;;105.57;36.53;;;;;;;-15.69;72.41;93143.96;1775086;80;21198;-75
2021/01/19 01:23:02;;;;;;;97.07;36.70;;;;;;;-15.74;72.36;93142.60;1776327;80;22053;-75
2021/01/19 01:25:30;;;;;;;78.20;26.33;;;;;;;-15.83;71.85;93141.94;1775089;80;21171;-75
2021/01/19 01:27:58;;;;;;;64.50;25.87;;;;;;;-15.92;72.28;93142.87;1775402;80;21187;-76
2021/01/19 01:30:26;;;;;;;88.93;33.27;;;;;;;-15.94;73.43;93150.94;1776249;80;21135;-76
2021/01/19 01:32:53;;;;;;;123.00;44.90;;;;;;;-15.89;73.18;93139.79;1775992;80;21191;-77
2021/01/19 01:35:22;;;;;;;148.07;53.63;;;;;;;-15.89;72.20;93142.39;1776424;80;21407;-75
2021/01/19 01:37:52;;;;;;;126.17;48.53;;;;;;;-15.99;71.00;93143.55;1721477;82;21168;-74
2021/01/19 01:40:24;;;;;;;115.77;40.80;;;;;;;-16.13;70.83;93148.31;1768712;80;21461;-76
2021/01/19 01:42:55;;;;;;;109.23;40.90;;;;;;;-16.23;71.20;93144.25;1790193;79;21176;-75
2021/01/19 01:45:25;;;;;;;123.53;45.97;;;;;;;-16.32;71.71;93146.47;1755229;80;21614;-74
2021/01/19 01:47:54;;;;;;;96.47;37.37;;;;;;;-16.37;72.41;93145.58;1818071;78;21822;-76
2021/01/19 01:50:22;;;;;;;72.90;25.87;;;;;;;-16.41;72.49;93148.66;1741210;82;21725;-77
2021/01/19 01:52:50;;;;;;;78.97;27.03;;;;;;;-16.49;73.05;93135.25;1787185;80;21201;-74
2021/01/19 01:55:17;;;;;;;86.43;31.20;;;;;;;-16.47;74.30;93143.59;1745517;81;21223;-74
2021/01/19 01:57:45;;;;;;;65.43;23.10;;;;;;;-16.39;74.37;93140.63;1744467;80;21537;-74
2021/01/19 02:00:13;;;;;;;45.37;19.13;;;;;;;-16.35;74.33;93139.13;1674257;80;21406;-75
2021/01/19 02:02:43;;;;;;;92.37;31.57;;;;;;;-16.30;75.06;93134.50;1751253;82;21168;-72
2021/01/19 02:05:11;;;;;;;68.27;26.73;;;;;;;-16.20;74.37;93137.27;1683500;83;21219;-75
2021/01/19 02:08:17;;;;;;;75.87;27.20;;;;;;;-16.29;73.87;93130.86;1766680;80;21159;-74
2021/01/19 02:11:02;;;;;;;72.23;27.20;;;;;;;-16.34;74.44;93125.59;1768415;80;21180;-74
2021/01/19 02:14:09;;;;;;;71.17;27.47;;;;;;;-16.33;74.65;93133.67;1710254;81;22599;-74
2021/01/19 02:17:05;;;;;;;53.13;19.43;;;;;;;-16.34;74.42;93129.49;1740922;80;21203;-73
2021/01/19 02:20:22;;;;;;;39.40;15.50;;;;;;;-16.32;75.83;93121.73;1752951;80;26478;-73
2021/01/19 02:23:05;;;;;;;68.07;25.33;;;;;;;-16.22;76.17;93125.77;1787523;80;21179;-75
2021/01/19 02:25:38;;;;;;;58.60;25.33;;;;;;;-16.08;76.19;93128.84;1790623;80;21151;-74
2021/01/19 02:28:16;;;;;;;91.23;31.93;;;;;;;-15.96;76.20;93128.74;1818378;78;21364;-74
2021/01/19 02:31:24;;;;;;;89.10;29.60;;;;;;;-15.79;76.36;93124.30;1804538;78;21208;-75
2021/01/19 02:34:15;;;;;;;50.92;17.20;;;;;;;-15.65;75.67;93123.94;1737272;82;21452;-74
2021/01/19 02:37:20;;;;;;;61.17;19.47;;;;;;;-15.60;75.91;93120.87;1795092;79;21169;-76
2021/01/19 02:40:06;;;;;;;74.70;25.23;;;;;;;-15.40;75.53;93119.53;1747209;82;21187;-74
2021/01/19 02:43:11;;;;;;;50.20;16.70;;;;;;;-15.33;74.94;93132.66;1796511;79;21219;-74
2021/01/19 02:45:45;;;;;;;39.27;14.97;;;;;;;-15.20;75.67;93124.97;1796794;79;21211;-75
2021/01/19 02:48:13;;;;;;;44.87;18.43;;;;;;;-14.89;76.32;93127.41;1746454;82;21171;-75
2021/01/19 02:50:41;;;;;;;66.10;23.17;;;;;;;-14.65;75.86;93125.28;1796383;79;21153;-75
2021/01/19 02:53:11;;;;;;;71.47;28.40;;;;;;;-14.46;75.31;93126.45;1746701;82;21192;-73
2021/01/19 02:55:39;;;;;;;64.97;24.97;;;;;;;-14.37;74.87;93126.00;1777068;79;21373;-75
2021/01/19 02:58:36;;;;;;;41.23;17.50;;;;;;;-14.30;74.76;93116.91;1796969;79;21208;-75
2021/01/19 03:01:19;;;;;;;62.57;23.93;;;;;;;-14.20;74.87;93122.22;1746174;82;21187;-74
2021/01/19 03:03:49;;;;;;;36.00;13.50;;;;;;;-14.06;74.87;93119.98;1797571;79;21177;-76
2021/01/19 03:06:18;;;;;;;42.90;16.27;;;;;;;-13.89;74.74;93117.73;1747525;82;21191;-75
2021/01/19 03:08:47;;;;;;;51.17;20.57;;;;;;;-13.69;74.57;93123.06;1797479;79;21366;-75
2021/01/19 03:11:17;;;;;;;60.23;22.53;;;;;;;-13.59;73.87;93111.89;1743951;81;21188;-76
2021/01/19 03:13:46;;;;;;;58.40;23.07;;;;;;;-13.58;73.96;93124.70;1745005;82;21087;-73
2021/01/19 03:16:15;;;;;;;61.60;25.23;;;;;;;-13.58;74.00;93126.53;1746957;82;21235;-76
2021/01/19 03:18:44;;;;;;;52.67;20.93;;;;;;;-13.56;73.64;93116.09;1817514;78;21104;-75
2021/01/19 03:21:11;;;;;;;37.83;15.47;;;;;;;-13.58;73.36;93126.01;1766849;78;21777;-76
2021/01/19 03:23:40;;;;;;;52.90;20.53;;;;;;;-13.58;73.56;93118.16;1731503;82;21207;-76
2021/01/19 03:26:07;;;;;;;39.87;18.07;;;;;;;-13.52;73.67;93125.00;1810674;78;21152;-78
2021/01/19 03:28:35;;;;;;;38.50;16.57;;;;;;;-13.48;73.31;93121.36;1736670;82;21654;-76
2021/01/19 03:31:03;;;;;;;37.47;15.93;;;;;;;-13.46;73.30;93117.98;1804532;79;21116;-75
2021/01/19 03:33:31;;;;;;;35.70;14.23;;;;;;;-13.44;73.35;93111.17;1812570;78;21192;-75
2021/01/19 03:36:00;;;;;;;33.10;15.10;;;;;;;-13.38;73.34;93113.56;1730694;82;21190;-76
2021/01/19 03:38:27;;;;;;;29.67;13.23;;;;;;;-13.28;73.22;93108.88;1812196;78;21160;-74
2021/01/19 03:40:55;;;;;;;32.03;12.33;;;;;;;-13.20;72.93;93107.05;1703087;82;21252;-75
2021/01/19 03:43:25;;;;;;;22.97;10.43;;;;;;;-13.12;72.71;93105.80;1764281;79;21137;-74
2021/01/19 03:45:53;;;;;;;32.17;12.80;;;;;;;-13.06;72.75;93100.83;1796553;78;21460;-74
2021/01/19 03:48:26;;;;;;;22.13;9.23;;;;;;;-13.00;72.51;93098.50;1744950;82;21242;-75
2021/01/19 03:51:12;;;;;;;27.63;12.63;;;;;;;-12.93;72.24;93093.80;1744373;81;21200;-74
2021/01/19 03:53:39;;;;;;;35.50;17.30;;;;;;;-12.87;72.59;93100.61;1720038;82;21675;-75
2021/01/19 03:56:07;;;;;;;30.37;12.70;;;;;;;-12.83;72.58;93092.50;1809289;78;21629;-75
2021/01/19 03:58:34;;;;;;;31.03;13.33;;;;;;;-12.79;72.25;93092.77;1744299;82;21195;-75
2021/01/19 04:01:02;;;;;;;28.43;11.43;;;;;;;-12.76;72.26;93086.50;1797833;79;21747;-76
2021/01/19 04:03:30;;;;;;;26.20;12.13;;;;;;;-12.69;71.79;93087.56;1750793;82;21152;-75
2021/01/19 04:05:58;;;;;;;23.33;9.93;;;;;;;-12.61;71.76;93084.95;1797210;79;21151;-74
2021/01/19 04:08:25;;;;;;;24.53;9.93;;;;;;;-12.56;70.92;93090.19;1798692;79;21129;-75
2021/01/19 04:10:53;;;;;;;21.47;10.00;;;;;;;-12.52;70.73;93081.56;1795629;79;22080;-74
2021/01/19 04:13:20;;;;;;;25.03;10.53;;;;;;;-12.47;70.43;93083.92;1798740;79;21188;-76
2021/01/19 04:15:48;;;;;;;21.77;9.70;;;;;;;-12.42;70.62;93084.70;1726673;83;21172;-75
2021/01/19 04:18:15;;;;;;;26.33;10.87;;;;;;;-12.39;70.28;93091.27;1818254;78;21148;-75
2021/01/19 04:20:43;;;;;;;20.47;9.17;;;;;;;-12.36;70.25;93092.05;1745044;82;21120;-74
2021/01/19 04:23:14;;;;;;;17.03;8.20;;;;;;;-12.32;70.69;93091.27;1804235;79;22642;-76
2021/01/19 04:25:45;;;;;;;21.50;10.03;;;;;;;-12.27;70.43;93093.88;1739008;80;21231;-75
2021/01/19 04:28:13;;;;;;;27.00;10.97;;;;;;;-12.25;70.45;93084.45;1726179;81;21177;-76
2021/01/19 04:30:41;;;;;;;22.57;10.43;;;;;;;-12.23;69.85;93092.83;1747062;82;21558;-78
2021/01/19 04:33:11;;;;;;;26.17;10.67;;;;;;;-12.19;70.01;93093.09;1717941;83;21652;-75
2021/01/19 04:35:43;;;;;;;20.30;10.40;;;;;;;-12.17;69.91;93090.48;1688007;84;21464;-73
2021/01/19 04:38:11;;;;;;;22.17;9.90;;;;;;;-12.12;69.64;93090.47;1801701;78;21691;-75
2021/01/19 04:40:39;;;;;;;23.50;11.37;;;;;;;-12.09;69.72;93093.09;1743275;81;21236;-75
2021/01/19 04:43:06;;;;;;;21.17;10.23;;;;;;;-12.08;69.59;93086.80;1735147;81;21579;-76
2021/01/19 04:45:34;;;;;;;23.63;9.87;;;;;;;-12.06;69.19;93084.18;1709225;83;21665;-75
2021/01/19 04:48:02;;;;;;;16.70;8.17;;;;;;;-12.04;69.72;93080.75;1719720;81;21238;-76
2021/01/19 04:50:30;;;;;;;20.50;10.80;;;;;;;-12.04;69.80;93078.13;1727829;80;21705;-76
2021/01/19 04:52:59;;;;;;;25.23;11.23;;;;;;;-12.01;69.97;93088.09;1760318;81;21196;-76
2021/01/19 04:55:27;;;;;;;20.57;9.03;;;;;;;-12.00;70.14;93079.20;1692710;82;21196;-76
2021/01/19 04:58:03;;;;;;;23.67;9.77;;;;;;;-11.98;70.19;93075.52;1743699;81;21161;-75
2021/01/19 05:00:36;;;;;;;24.90;10.83;;;;;;;-11.94;70.24;93077.34;1826901;78;21207;-74
2021/01/19 05:03:21;;;;;;;21.70;10.33;;;;;;;-11.90;69.73;93074.98;1699807;82;21205;-77
2021/01/19 05:06:14;;;;;;;26.37;11.13;;;;;;;-11.88;69.72;93075.48;1762543;81;21216;-76
2021/01/19 05:08:47;;;;;;;19.63;9.43;;;;;;;-11.85;70.06;93094.10;1732979;82;21173;-76
2021/01/19 05:11:28;;;;;;;24.30;10.73;;;;;;;-11.83;69.24;93080.19;1733148;81;21196;-76
2021/01/19 05:14:02;;;;;;;19.70;9.07;;;;;;;-11.78;69.38;93084.62;1767965;81;21359;-75
2021/01/19 05:16:32;;;;;;;;;;;;;;;-11.76;69.23;93090.41;1734471;81;21232;-76
2021/01/19 05:19:01;;;;;;;21.00;8.87;;;;;;;-11.78;69.45;93090.66;1758162;81;20283;-77
2021/01/19 05:21:28;;;;;;;17.37;9.80;;;;;;;-11.77;69.95;93086.19;1763861;81;21215;-77
2021/01/19 05:23:56;;;;;;;16.50;8.57;;;;;;;-11.75;70.04;93090.13;1766727;80;21148;-76
2021/01/19 05:26:24;;;;;;;25.93;13.03;;;;;;;-11.72;70.21;93086.73;1731803;81;21104;-76
2021/01/19 05:28:54;;;;;;;20.57;9.43;;;;;;;-11.70;70.57;93081.45;1776346;80;21204;-77
2021/01/19 05:31:30;;;;;;;23.80;11.13;;;;;;;-11.66;70.02;93089.05;1763697;81;21529;-76
2021/01/19 05:33:59;;;;;;;16.53;9.67;;;;;;;-11.64;70.10;93093.52;1742287;81;21160;-77
2021/01/19 05:36:35;;;;;;;15.47;8.87;;;;;;;-11.61;69.35;93095.63;1742693;81;21224;-78
2021/01/19 05:39:05;;;;;;;18.80;10.33;;;;;;;-11.57;69.45;93091.41;1743842;81;21527;-78
2021/01/19 05:41:47;;;;;;;24.17;10.33;;;;;;;-11.53;69.26;93099.54;1735965;81;21468;-75
2021/01/19 05:44:29;;;;;;;25.93;11.23;;;;;;;-11.54;69.22;93097.45;1741945;80;21211;-76
2021/01/19 05:47:02;;;;;;;25.27;11.23;;;;;;;-11.52;69.42;93093.23;1746421;80;21240;-76
2021/01/19 05:49:42;;;;;;;24.30;11.13;;;;;;;-11.50;70.14;93095.86;1682464;83;21177;-77
2021/01/19 05:52:13;;;;;;;19.17;9.00;;;;;;;-11.46;70.32;93091.39;1712132;81;21208;-74
2021/01/19 05:54:45;;;;;;;19.03;9.50;;;;;;;-11.46;70.61;93092.70;1745034;81;21096;-77
2021/01/19 05:57:22;;;;;;;25.63;12.30;;;;;;;-11.47;70.79;93092.42;1747708;80;21211;-76
2021/01/19 05:59:59;;;;;;;27.27;12.60;;;;;;;-11.47;71.03;93087.17;1709457;83;21212;-75
2021/01/19 06:02:42;;;;;;;21.00;10.17;;;;;;;-11.45;71.38;93087.17;1791568;79;21415;-75
2021/01/19 06:05:15;;;;;;;17.30;9.50;;;;;;;-11.40;71.64;93082.44;1791676;79;21358;-76
2021/01/19 06:07:46;;;;;;;17.33;8.47;;;;;;;-11.36;70.81;93079.53;1725843;82;21200;-74
2021/01/19 06:10:20;;;;;;;22.30;10.23;;;;;;;-11.31;71.30;93075.59;1755782;81;21117;-77
2021/01/19 06:12:48;;;;;;;25.83;10.23;;;;;;;-11.26;71.13;93074.25;1791777;79;21202;-78
2021/01/19 06:15:19;;;;;;;21.90;9.83;;;;;;;-11.20;71.51;93064.53;1726581;82;21180;-76
2021/01/19 06:17:47;;;;;;;19.73;9.23;;;;;;;-11.18;71.39;93069.75;1704251;83;22691;-73
2021/01/19 06:20:15;;;;;;;31.80;12.87;;;;;;;-11.18;71.23;93072.37;1731083;79;21462;-76
2021/01/19 06:22:42;;;;;;;17.93;9.93;;;;;;;-11.16;71.31;93066.34;1740474;82;21168;-76
2021/01/19 06:25:13;;;;;;;20.13;9.97;;;;;;;-11.12;71.15;93072.63;1715574;82;21202;-75
2021/01/19 06:27:40;;;;;;;28.97;12.90;;;;;;;-11.09;70.72;93068.69;1791053;79;21097;-75
2021/01/19 06:30:12;;;;;;;25.37;11.07;;;;;;;-11.08;70.93;93074.97;1735402;81;21265;-77
2021/01/19 06:32:47;;;;;;;50.57;21.30;;;;;;;-11.06;71.04;93072.84;1806640;78;21124;-76
2021/01/19 06:35:22;;;;;;;35.90;15.80;;;;;;;-11.07;71.73;93077.84;1730618;82;21120;-76
2021/01/19 06:37:55;;;;;;;23.23;10.97;;;;;;;-11.09;71.79;93073.41;1760943;79;21200;-79
2021/01/19 06:40:31;;;;;;;20.73;9.20;;;;;;;-11.06;70.57;93071.53;1722022;78;21172;-75
2021/01/19 06:43:03;;;;;;;18.70;10.03;;;;;;;-11.03;70.66;93077.56;1746972;80;21398;-77
2021/01/19 06:45:32;;;;;;;18.80;9.83;;;;;;;-10.98;70.88;93079.90;1720248;82;21073;-77
2021/01/19 06:48:02;;;;;;;17.93;9.37;;;;;;;-10.95;70.65;93085.40;1774204;78;21203;-77
2021/01/19 06:50:34;;;;;;;23.70;11.77;;;;;;;-10.95;70.67;93074.89;1699805;83;21346;-76
2021/01/19 06:53:17;;;;;;;21.27;10.13;;;;;;;-10.92;70.89;93089.34;1802998;78;22345;-76
2021/01/19 06:56:11;;;;;;;28.37;13.20;;;;;;;-10.90;70.28;93080.14;1782349;78;21303;-76
2021/01/19 06:58:57;;;;;;;27.47;11.80;;;;;;;-10.87;70.45;93083.55;1697245;82;21185;-77
2021/01/19 07:01:28;;;;;;;21.43;11.00;;;;;;;-10.81;71.07;93090.86;1793779;79;21149;-77
2021/01/19 07:04:25;;;;;;;20.50;9.73;;;;;;;-10.74;71.43;93094.50;1815022;78;21738;-76
2021/01/19 07:07:26;;;;;;;18.70;9.53;;;;;;;-10.69;71.03;93101.03;1688926;82;21181;-76
2021/01/19 07:10:15;;;;;;;17.87;8.87;;;;;;;-10.68;70.53;93105.23;1725840;81;21609;-77
2021/01/19 07:12:58;;;;;;;19.53;10.23;;;;;;;-10.64;71.00;93091.30;1796013;78;21204;-77
2021/01/19 07:15:56;;;;;;;19.93;10.03;;;;;;;-10.62;71.41;93114.13;1790892;78;21181;-79
2021/01/19 07:18:48;;;;;;;17.67;7.87;;;;;;;-10.59;70.94;93098.36;1795281;79;21173;-75
2021/01/19 07:21:17;;;;;;;18.43;9.80;;;;;;;-10.56;70.65;93105.17;1776941;79;21211;-78
2021/01/19 07:23:54;;;;;;;19.60;9.20;;;;;;;-10.55;70.80;93106.73;1796654;78;21259;-80
2021/01/19 07:26:33;;;;;;;17.63;9.93;;;;;;;-10.51;70.99;93103.03;1807428;78;21034;-77
2021/01/19 07:29:01;;;;;;;18.93;10.07;;;;;;;-10.42;70.76;93109.27;1779039;79;21300;-76
2021/01/19 07:31:28;;;;;;;17.00;8.73;;;;;;;-10.38;70.53;93101.63;1670205;86;21213;-74
2021/01/19 07:33:58;;;;;;;17.03;8.93;;;;;;;-10.35;70.29;93101.88;1780147;79;21451;-79
2021/01/19 07:36:26;;;;;;;20.13;10.03;;;;;;;-10.32;70.42;93100.55;1774235;80;21645;-78
2021/01/19 07:38:54;;;;;;;24.57;10.73;;;;;;;-10.29;70.22;93093.44;1801358;78;21201;-77
2021/01/19 07:41:33;;;;;;;18.30;8.90;;;;;;;-10.24;70.49;93096.52;1725971;82;21168;-76
2021/01/19 07:44:01;;;;;;;18.03;9.37;;;;;;;-10.19;70.91;93099.91;1779553;78;21191;-77
2021/01/19 07:46:30;;;;;;;19.17;9.93;;;;;;;-10.13;71.00;93089.59;1799955;79;21224;-75
2021/01/19 07:49:23;;;;;;;21.57;10.47;;;;;;;-10.08;70.22;93089.57;1775115;80;22494;-75
2021/01/19 07:51:51;;;;;;;20.57;10.30;;;;;;;-10.06;70.47;93099.80;1711595;83;21218;-76
2021/01/19 07:54:27;;;;;;;22.87;10.13;;;;;;;-10.01;70.56;93095.81;1696007;84;21237;-77
2021/01/19 07:56:55;;;;;;;18.20;10.23;;;;;;;-9.96;70.09;93091.06;1776288;79;21179;-75
2021/01/19 07:59:28;;;;;;;17.23;8.53;;;;;;;-9.95;70.42;93094.72;1783543;79;21211;-75
2021/01/19 08:01:57;;;;;;;20.70;11.00;;;;;;;-9.89;70.19;93098.89;1671460;82;21335;-76
2021/01/19 08:04:37;;;;;;;26.93;13.90;;;;;;;-9.85;70.18;93093.33;1731608;79;21228;-75
2021/01/19 08:07:15;;;;;;;28.87;13.17;;;;;;;-9.80;70.90;93098.53;1812505;78;21520;-76
2021/01/19 08:09:43;;;;;;;21.80;9.87;;;;;;;-9.75;71.09;93095.59;1798117;79;21147;-76
2021/01/19 08:12:14;;;;;;;15.33;7.93;;;;;;;-9.69;70.50;93094.50;1774852;80;21188;-77
2021/01/19 08:14:46;;;;;;;18.00;9.47;;;;;;;-9.64;70.44;93093.13;1801495;78;21172;-76
2021/01/19 08:17:13;;;;;;;20.23;10.03;;;;;;;-9.64;70.47;93101.02;1735746;82;21676;-78
2021/01/19 08:19:43;;;;;;;18.13;10.20;;;;;;;-9.65;69.85;93086.30;1757602;80;21531;-76
2021/01/19 08:22:12;;;;;;;19.27;10.70;;;;;;;-9.62;69.95;93091.80;1756638;79;21164;-77
2021/01/19 08:24:47;;;;;;;21.40;10.47;;;;;;;-9.54;70.66;93099.08;1728684;82;21213;-78
2021/01/19 08:33:40;;;;;;;17.93;9.80;;;;;;;-9.41;70.27;93099.48;1738647;81;21229;-79
2021/01/19 08:36:10;;;;;;;17.17;9.17;;;;;;;-9.34;70.09;93095.98;1713771;82;21191;-77
2021/01/19 08:38:38;;;;;;;15.47;8.43;;;;;;;-9.32;70.53;93103.87;1740117;82;21231;-76
2021/01/19 08:41:10;;;;;;;15.57;8.17;;;;;;;-9.25;70.90;93093.02;1740110;82;21471;-76
2021/01/19 08:43:37;;;;;;;16.30;9.30;;;;;;;-9.17;70.13;93093.70;1738625;82;21242;-80
2021/01/19 08:46:09;;;;;;;18.67;9.03;;;;;;;-9.09;69.74;93096.25;1804267;79;21946;-75
2021/01/19 08:48:36;;;;;;;20.77;11.93;;;;;;;-9.06;69.36;93105.70;1741885;82;21105;-74
2021/01/19 08:51:04;;;;;;;22.87;11.97;;;;;;;-9.06;70.23;93109.65;1766938;78;21223;-78
2021/01/19 08:53:32;;;;;;;21.17;12.13;;;;;;;-9.02;70.56;93109.88;1717437;82;21258;-80
2021/01/19 08:55:59;;;;;;;16.37;9.60;;;;;;;-8.95;70.12;93101.09;1796996;79;21415;-77
2021/01/19 08:58:28;;;;;;;17.97;9.83;;;;;;;-8.90;69.64;93106.30;1726504;82;21217;-79
2021/01/19 09:00:57;;;;;;;19.70;9.90;;;;;;;-8.91;68.98;93106.05;1746262;81;21200;-77
2021/01/19 09:03:25;;;;;;;20.23;11.27;;;;;;;-8.94;68.76;93100.56;1715770;82;21536;-76
2021/01/19 09:05:58;;;;;;;17.03;8.63;;;;;;;-8.94;68.52;93102.66;1703670;82;21530;-76
2021/01/19 09:08:28;;;;;;;21.37;10.77;;;;;;;-8.91;68.37;93096.83;1736530;79;21034;-77
2021/01/19 09:11:10;;;;;;;27.50;12.67;;;;;;;-8.88;67.17;93098.88;1725962;82;21169;-76
2021/01/19 09:13:39;;;;;;;27.40;13.68;;;;;;;-8.84;68.04;93110.95;1742276;81;21279;-75
2021/01/19 09:16:07;;;;;;;19.43;10.43;;;;;;;-8.76;68.14;93102.95;1696091;82;21190;-78
2021/01/19 09:18:36;;;;;;;21.20;9.87;;;;;;;-8.76;67.85;93106.41;1727575;83;21271;-78
2021/01/19 09:21:08;;;;;;;25.17;11.60;;;;;;;-8.78;68.27;93107.20;1791454;79;21208;-76
2021/01/19 09:23:35;;;;;;;17.90;10.13;;;;;;;-8.73;68.25;93101.08;1792636;79;21185;-77
2021/01/19 09:26:05;;;;;;;20.33;10.83;;;;;;;-8.66;68.37;93102.84;1727334;82;21097;-79
2021/01/19 09:28:37;;;;;;;23.03;12.23;;;;;;;-8.59;67.72;93094.05;1791794;79;21081;-78
2021/01/19 09:31:22;;;;;;;19.13;11.17;;;;;;;-8.53;68.50;93082.91;1725490;82;21372;-78
2021/01/19 09:33:53;;;;;;;20.92;10.70;;;;;;;-8.47;67.52;93079.90;1714465;83;21255;-80
2021/01/19 09:36:21;;;;;;;20.97;10.70;;;;;;;-8.43;67.78;93086.17;1750134;81;21630;-79
2021/01/19 09:38:53;;;;;;;20.90;11.40;;;;;;;-8.38;67.91;93070.83;1728858;83;21161;-75
2021/01/19 09:41:26;;;;;;;20.60;10.00;;;;;;;-8.27;68.70;93080.13;1793251;79;21719;-76
2021/01/19 09:43:56;;;;;;;18.03;10.47;;;;;;;-8.17;68.58;93080.50;1774522;79;21358;-76
2021/01/19 09:46:26;;;;;;;17.27;10.13;;;;;;;-8.07;68.48;93074.53;1792599;80;21137;-79
2021/01/19 09:48:59;;;;;;;17.97;9.83;;;;;;;-7.93;68.20;93065.36;1747697;82;21223;-77
2021/01/19 09:51:29;;;;;;;18.73;10.33;;;;;;;-7.78;67.84;93070.92;1768678;80;21179;-78
2021/01/19 09:54:00;;;;;;;18.27;9.77;;;;;;;-7.67;67.21;93071.00;1773972;80;21215;-78
2021/01/19 09:56:32;;;;;;;16.33;10.27;;;;;;;-7.62;65.76;93070.13;1774453;80;22303;-78
2021/01/19 09:59:05;;;;;;;17.17;10.57;;;;;;;-7.66;66.06;93066.50;1763903;80;21314;-77
2021/01/19 10:01:35;;;;;;;16.37;9.60;;;;;;;-7.67;65.81;93067.05;1686985;85;21187;-77
2021/01/19 10:04:03;;;;;;;19.20;10.50;;;;;;;-7.66;65.51;93062.54;1728054;82;21176;-76
2021/01/19 10:06:31;;;;;;;17.83;10.13;;;;;;;-7.71;65.20;93058.65;1738887;82;21200;-77
2021/01/19 10:08:58;;;;;;;18.70;10.87;;;;;;;-7.75;66.01;93053.16;1807065;78;21563;-78
2021/01/19 10:11:34;;;;;;;18.33;11.13;;;;;;;-7.80;66.27;93051.94;1727250;82;21208;-78
2021/01/19 10:14:36;;;;;;;18.70;10.00;;;;;;;-7.87;65.91;93052.30;1814538;78;21337;-78
2021/01/19 10:17:05;;;;;;;17.97;10.03;;;;;;;-7.98;66.65;93042.98;1714674;83;21297;-77
2021/01/19 10:19:35;;;;;;;20.17;11.37;;;;;;;-7.99;67.28;93036.16;1684807;84;21220;-78
2021/01/19 10:22:07;;;;;;;19.40;10.57;;;;;;;-7.94;67.16;93035.28;1745383;82;21227;-79
2021/01/19 10:24:35;;;;;;;21.00;11.63;;;;;;;-7.89;67.41;93032.58;1740968;81;21184;-77
2021/01/19 10:27:09;;;;;;;24.70;12.77;;;;;;;-7.88;66.28;93030.17;1744944;82;21128;-74
2021/01/19 10:29:40;;;;;;;22.67;12.00;;;;;;;-7.97;65.99;93030.06;1746683;81;21200;-80
2021/01/19 10:32:16;;;;;;;31.77;16.73;;;;;;;-8.02;65.68;93024.07;1748985;79;21793;-75
2021/01/19 10:34:46;;;;;;;21.27;11.73;;;;;;;-8.02;66.57;93023.53;1726549;83;22312;-77
2021/01/19 10:37:15;;;;;;;18.27;10.70;;;;;;;-7.95;66.33;93017.34;1666217;86;21475;-79
2021/01/19 10:39:59;;;;;;;17.87;10.27;;;;;;;-7.85;67.19;93006.63;1713481;83;21352;-77
2021/01/19 10:42:30;;;;;;;19.37;10.83;;;;;;;-7.68;66.56;93001.31;1733210;82;21204;-77
2021/01/19 10:45:03;;;;;;;21.33;10.77;;;;;;;-7.49;65.77;93004.64;1730476;82;21527;-77
2021/01/19 10:47:40;;;;;;;18.70;11.07;;;;;;;-7.34;65.00;92995.10;1728832;82;21387;-77
2021/01/19 10:50:15;;;;;;;17.93;10.90;;;;;;;-7.24;64.37;93000.73;1735586;82;21212;-78
2021/01/19 10:52:44;;;;;;;21.00;11.95;;;;;;;-7.25;64.56;92990.48;1730985;82;21631;-77
2021/01/19 10:55:12;;;;;;;16.87;9.73;;;;;;;-7.29;64.32;93000.85;1729480;82;21164;-78
2021/01/19 10:57:39;;;;;;;17.03;9.27;;;;;;;-7.32;64.30;92988.22;1753916;81;21611;-77
2021/01/19 11:00:08;;;;;;;19.13;10.37;;;;;;;-7.35;63.87;92996.73;1761076;80;21866;-80
2021/01/19 11:02:36;;;;;;;18.97;9.73;;;;;;;-7.35;64.24;92995.41;1720979;83;21516;-75
2021/01/19 11:05:06;;;;;;;20.03;11.40;;;;;;;-7.30;63.71;92993.20;1798143;79;21156;-76
2021/01/19 11:07:36;;;;;;;19.73;11.33;;;;;;;-7.32;64.23;92978.20;1742741;82;21191;-78
2021/01/19 11:10:04;;;;;;;17.87;10.30;;;;;;;-7.35;64.19;92982.20;1799902;78;21196;-78
2021/01/19 11:12:32;;;;;;;23.20;11.47;;;;;;;-7.35;64.87;92979.02;1737748;82;21568;-76
2021/01/19 11:15:00;;;;;;;18.23;10.03;;;;;;;-7.27;65.47;92974.13;1786426;79;21153;-78
2021/01/19 11:17:29;;;;;;;20.07;10.47;;;;;;;-7.20;65.62;92978.48;1732063;82;21249;-78
2021/01/19 11:19:59;;;;;;;20.20;10.03;;;;;;;-7.16;65.60;92990.80;1745117;82;21199;-78
2021/01/19 11:22:27;;;;;;;19.57;10.27;;;;;;;-7.12;64.82;92983.84;1796813;79;21247;-78
2021/01/19 11:24:55;;;;;;;19.33;10.53;;;;;;;-6.99;65.56;92970.38;1693291;83;22006;-79
2021/01/19 11:27:22;;;;;;;20.07;11.80;;;;;;;-6.89;64.95;92974.11;1699543;83;21147;-78
2021/01/19 11:29:52;;;;;;;21.73;11.77;;;;;;;-6.83;64.35;92974.80;1693772;83;21762;-79
2021/01/19 11:32:19;;;;;;;21.63;11.07;;;;;;;-6.82;64.58;92968.41;1748753;82;21724;-79
2021/01/19 11:34:47;;;;;;;17.70;10.10;;;;;;;-6.83;63.87;92968.73;1684146;85;21188;-79
2021/01/19 11:37:15;;;;;;;23.43;11.13;;;;;;;-6.86;64.24;92956.33;1683973;85;21428;-78
2021/01/19 11:39:42;;;;;;;19.40;10.77;;;;;;;-6.89;64.08;92960.11;1708350;82;21181;-77
2021/01/19 11:42:10;;;;;;;19.93;10.77;;;;;;;-6.97;63.13;92965.56;1761897;81;21304;-76
2021/01/19 11:44:38;;;;;;;15.80;9.93;;;;;;;-7.07;63.58;92970.27;1740663;82;21195;-77